sensor_id;sensor_type;location;lat;lon;timestamp;P1;durP1;ratioP1;P2;durP2;ratioP2
66800;SDS011;53703;50.326;19.122;2023-04-25T00:01:05;3.60;;;2.40;;
66800;SDS011;53703;50.326;19.122;2023-04-25T00:03:59;4.00;;;2.50;;
66800;SDS011;53703;50.326;19.122;2023-04-25T00:06:53;3.70;;;2.50;;
66800;SDS011;53703;50.326;19.122;2023-04-25T00:09:48;4.10;;;2.60;;
66800;SDS011;53703;50.326;19.122;2023-04-25T00:12:42;4.70;;;3.10;;
66800;SDS011;53703;50.326;19.122;2023-04-25T00:15:36;4.70;;;2.80;;
66800;SDS011;53703;50.326;19.122;2023-04-25T00:18:32;4.80;;;2.80;;
66800;SDS011;53703;50.326;19.122;2023-04-25T00:21:27;4.70;;;2.70;;
66800;SDS011;53703;50.326;19.122;2023-04-25T00:24:22;4.30;;;2.80;;
66800;SDS011;53703;50.326;19.122;2023-04-25T00:27:16;6.70;;;2.80;;
66800;SDS011;53703;50.326;19.122;2023-04-25T00:30:12;3.90;;;2.70;;
66800;SDS011;53703;50.326;19.122;2023-04-25T00:33:06;5.50;;;2.60;;
66800;SDS011;53703;50.326;19.122;2023-04-25T00:36:00;4.10;;;2.60;;
66800;SDS011;53703;50.326;19.122;2023-04-25T00:38:55;5.10;;;2.90;;
66800;SDS011;53703;50.326;19.122;2023-04-25T00:41:50;5.00;;;3.10;;
66800;SDS011;53703;50.326;19.122;2023-04-25T00:44:45;6.30;;;2.90;;
66800;SDS011;53703;50.326;19.122;2023-04-25T00:47:39;4.00;;;3.10;;
66800;SDS011;53703;50.326;19.122;2023-04-25T00:50:34;4.60;;;3.00;;
66800;SDS011;53703;50.326;19.122;2023-04-25T00:53:29;5.80;;;3.30;;
66800;SDS011;53703;50.326;19.122;2023-04-25T00:56:24;6.10;;;3.30;;
66800;SDS011;53703;50.326;19.122;2023-04-25T00:59:18;4.60;;;3.20;;
66800;SDS011;53703;50.326;19.122;2023-04-25T01:02:13;5.80;;;3.40;;
66800;SDS011;53703;50.326;19.122;2023-04-25T01:05:08;8.00;;;3.80;;
66800;SDS011;53703;50.326;19.122;2023-04-25T01:08:03;8.70;;;4.40;;
66800;SDS011;53703;50.326;19.122;2023-04-25T01:10:57;7.10;;;3.80;;
66800;SDS011;53703;50.326;19.122;2023-04-25T01:13:51;7.30;;;4.50;;
66800;SDS011;53703;50.326;19.122;2023-04-25T01:16:45;7.40;;;4.70;;
66800;SDS011;53703;50.326;19.122;2023-04-25T01:19:39;7.60;;;4.70;;
66800;SDS011;53703;50.326;19.122;2023-04-25T01:22:34;7.20;;;4.30;;
66800;SDS011;53703;50.326;19.122;2023-04-25T01:25:28;9.10;;;4.70;;
66800;SDS011;53703;50.326;19.122;2023-04-25T01:28:22;9.80;;;5.40;;
66800;SDS011;53703;50.326;19.122;2023-04-25T01:31:16;9.40;;;4.80;;
66800;SDS011;53703;50.326;19.122;2023-04-25T01:34:10;9.00;;;4.50;;
66800;SDS011;53703;50.326;19.122;2023-04-25T01:37:04;6.30;;;4.10;;
66800;SDS011;53703;50.326;19.122;2023-04-25T01:39:58;8.00;;;4.40;;
66800;SDS011;53703;50.326;19.122;2023-04-25T01:42:52;7.90;;;4.30;;
66800;SDS011;53703;50.326;19.122;2023-04-25T01:45:46;6.50;;;4.30;;
66800;SDS011;53703;50.326;19.122;2023-04-25T01:48:41;6.60;;;4.40;;
66800;SDS011;53703;50.326;19.122;2023-04-25T01:51:34;8.00;;;3.90;;
66800;SDS011;53703;50.326;19.122;2023-04-25T01:54:28;5.50;;;3.70;;
66800;SDS011;53703;50.326;19.122;2023-04-25T01:57:22;6.50;;;4.00;;
66800;SDS011;53703;50.326;19.122;2023-04-25T02:00:16;6.00;;;4.00;;
66800;SDS011;53703;50.326;19.122;2023-04-25T02:03:11;7.40;;;3.90;;
66800;SDS011;53703;50.326;19.122;2023-04-25T02:06:06;6.40;;;4.10;;
66800;SDS011;53703;50.326;19.122;2023-04-25T02:08:59;6.80;;;4.00;;
66800;SDS011;53703;50.326;19.122;2023-04-25T02:11:53;6.60;;;4.00;;
66800;SDS011;53703;50.326;19.122;2023-04-25T02:14:48;7.80;;;4.70;;
66800;SDS011;53703;50.326;19.122;2023-04-25T02:17:41;5.80;;;4.20;;
66800;SDS011;53703;50.326;19.122;2023-04-25T02:20:36;8.60;;;4.30;;
66800;SDS011;53703;50.326;19.122;2023-04-25T02:23:30;6.60;;;4.10;;
66800;SDS011;53703;50.326;19.122;2023-04-25T02:26:24;8.60;;;4.70;;
66800;SDS011;53703;50.326;19.122;2023-04-25T02:29:18;7.40;;;4.60;;
66800;SDS011;53703;50.326;19.122;2023-04-25T02:32:12;7.50;;;4.30;;
66800;SDS011;53703;50.326;19.122;2023-04-25T02:35:07;8.00;;;4.30;;
66800;SDS011;53703;50.326;19.122;2023-04-25T02:38:01;8.30;;;4.60;;
66800;SDS011;53703;50.326;19.122;2023-04-25T02:40:55;6.90;;;4.50;;
66800;SDS011;53703;50.326;19.122;2023-04-25T02:43:49;8.20;;;4.90;;
66800;SDS011;53703;50.326;19.122;2023-04-25T02:46:43;6.00;;;4.30;;
66800;SDS011;53703;50.326;19.122;2023-04-25T02:49:38;8.10;;;4.50;;
66800;SDS011;53703;50.326;19.122;2023-04-25T02:52:32;7.80;;;4.80;;
66800;SDS011;53703;50.326;19.122;2023-04-25T02:55:26;7.70;;;4.30;;
66800;SDS011;53703;50.326;19.122;2023-04-25T02:58:20;6.60;;;4.00;;
66800;SDS011;53703;50.326;19.122;2023-04-25T03:01:14;5.20;;;3.60;;
66800;SDS011;53703;50.326;19.122;2023-04-25T03:03:52;6.30;;;4.00;;
66800;SDS011;53703;50.326;19.122;2023-04-25T03:06:46;7.20;;;3.70;;
66800;SDS011;53703;50.326;19.122;2023-04-25T03:09:40;7.00;;;3.80;;
66800;SDS011;53703;50.326;19.122;2023-04-25T03:12:33;6.60;;;4.10;;
66800;SDS011;53703;50.326;19.122;2023-04-25T03:15:28;5.80;;;3.90;;
66800;SDS011;53703;50.326;19.122;2023-04-25T03:18:22;6.60;;;3.90;;
66800;SDS011;53703;50.326;19.122;2023-04-25T03:21:16;6.10;;;4.20;;
66800;SDS011;53703;50.326;19.122;2023-04-25T03:24:10;6.60;;;4.10;;
66800;SDS011;53703;50.326;19.122;2023-04-25T03:27:04;6.00;;;4.20;;
66800;SDS011;53703;50.326;19.122;2023-04-25T03:29:58;7.90;;;4.30;;
66800;SDS011;53703;50.326;19.122;2023-04-25T03:32:51;7.40;;;4.40;;
66800;SDS011;53703;50.326;19.122;2023-04-25T03:35:46;6.60;;;4.10;;
66800;SDS011;53703;50.326;19.122;2023-04-25T03:38:40;6.10;;;4.40;;
66800;SDS011;53703;50.326;19.122;2023-04-25T03:41:34;5.60;;;3.70;;
66800;SDS011;53703;50.326;19.122;2023-04-25T03:44:28;6.80;;;4.00;;
66800;SDS011;53703;50.326;19.122;2023-04-25T03:47:22;6.90;;;4.20;;
66800;SDS011;53703;50.326;19.122;2023-04-25T03:50:16;7.00;;;4.30;;
66800;SDS011;53703;50.326;19.122;2023-04-25T03:53:10;5.40;;;3.80;;
66800;SDS011;53703;50.326;19.122;2023-04-25T03:56:04;8.10;;;4.20;;
66800;SDS011;53703;50.326;19.122;2023-04-25T03:59:00;6.40;;;4.00;;
66800;SDS011;53703;50.326;19.122;2023-04-25T04:01:54;6.30;;;3.90;;
66800;SDS011;53703;50.326;19.122;2023-04-25T04:04:47;6.10;;;3.80;;
66800;SDS011;53703;50.326;19.122;2023-04-25T04:07:42;7.00;;;4.10;;
66800;SDS011;53703;50.326;19.122;2023-04-25T04:10:36;6.00;;;3.40;;
66800;SDS011;53703;50.326;19.122;2023-04-25T04:13:30;6.70;;;3.30;;
66800;SDS011;53703;50.326;19.122;2023-04-25T04:16:23;5.90;;;3.40;;
66800;SDS011;53703;50.326;19.122;2023-04-25T04:19:18;5.60;;;3.60;;
66800;SDS011;53703;50.326;19.122;2023-04-25T04:22:12;4.60;;;3.10;;
66800;SDS011;53703;50.326;19.122;2023-04-25T04:25:08;6.40;;;3.50;;
66800;SDS011;53703;50.326;19.122;2023-04-25T04:28:02;5.80;;;3.30;;
66800;SDS011;53703;50.326;19.122;2023-04-25T04:30:56;4.00;;;2.90;;
66800;SDS011;53703;50.326;19.122;2023-04-25T04:33:52;5.30;;;3.20;;
66800;SDS011;53703;50.326;19.122;2023-04-25T04:36:46;4.10;;;2.80;;
66800;SDS011;53703;50.326;19.122;2023-04-25T04:39:40;4.40;;;3.30;;
66800;SDS011;53703;50.326;19.122;2023-04-25T04:42:33;4.80;;;3.00;;
66800;SDS011;53703;50.326;19.122;2023-04-25T04:45:27;7.20;;;3.10;;
66800;SDS011;53703;50.326;19.122;2023-04-25T04:48:21;5.40;;;3.40;;
66800;SDS011;53703;50.326;19.122;2023-04-25T04:51:15;6.20;;;3.00;;
66800;SDS011;53703;50.326;19.122;2023-04-25T04:54:09;5.40;;;3.40;;
66800;SDS011;53703;50.326;19.122;2023-04-25T04:57:03;7.40;;;3.70;;
66800;SDS011;53703;50.326;19.122;2023-04-25T04:59:56;7.00;;;4.00;;
66800;SDS011;53703;50.326;19.122;2023-04-25T05:02:51;5.40;;;3.70;;
66800;SDS011;53703;50.326;19.122;2023-04-25T05:05:45;5.50;;;3.00;;
66800;SDS011;53703;50.326;19.122;2023-04-25T05:08:39;4.30;;;2.90;;
66800;SDS011;53703;50.326;19.122;2023-04-25T05:11:32;4.70;;;3.20;;
66800;SDS011;53703;50.326;19.122;2023-04-25T05:14:26;6.20;;;3.20;;
66800;SDS011;53703;50.326;19.122;2023-04-25T05:17:20;12.20;;;3.00;;
66800;SDS011;53703;50.326;19.122;2023-04-25T05:20:14;3.70;;;2.60;;
66800;SDS011;53703;50.326;19.122;2023-04-25T05:23:09;5.70;;;2.70;;
66800;SDS011;53703;50.326;19.122;2023-04-25T05:26:03;5.90;;;2.70;;
66800;SDS011;53703;50.326;19.122;2023-04-25T05:29:04;5.20;;;2.60;;
66800;SDS011;53703;50.326;19.122;2023-04-25T05:31:57;3.50;;;2.50;;
66800;SDS011;53703;50.326;19.122;2023-04-25T05:34:51;3.90;;;2.50;;
66800;SDS011;53703;50.326;19.122;2023-04-25T05:37:46;4.70;;;2.60;;
66800;SDS011;53703;50.326;19.122;2023-04-25T05:40:40;5.10;;;2.80;;
66800;SDS011;53703;50.326;19.122;2023-04-25T05:43:34;5.00;;;2.80;;
66800;SDS011;53703;50.326;19.122;2023-04-25T05:46:28;4.30;;;2.20;;
66800;SDS011;53703;50.326;19.122;2023-04-25T05:49:22;4.70;;;2.60;;
66800;SDS011;53703;50.326;19.122;2023-04-25T05:52:17;4.00;;;2.40;;
66800;SDS011;53703;50.326;19.122;2023-04-25T05:55:11;5.10;;;2.30;;
66800;SDS011;53703;50.326;19.122;2023-04-25T05:58:06;3.30;;;2.20;;
66800;SDS011;53703;50.326;19.122;2023-04-25T06:01:00;4.00;;;2.40;;
66800;SDS011;53703;50.326;19.122;2023-04-25T06:03:54;5.50;;;2.80;;
66800;SDS011;53703;50.326;19.122;2023-04-25T06:06:49;4.70;;;2.60;;
66800;SDS011;53703;50.326;19.122;2023-04-25T06:09:42;3.80;;;2.40;;
66800;SDS011;53703;50.326;19.122;2023-04-25T06:12:36;5.80;;;2.10;;
66800;SDS011;53703;50.326;19.122;2023-04-25T06:15:30;3.40;;;2.30;;
66800;SDS011;53703;50.326;19.122;2023-04-25T06:18:25;4.10;;;2.20;;
66800;SDS011;53703;50.326;19.122;2023-04-25T06:21:19;8.10;;;2.30;;
66800;SDS011;53703;50.326;19.122;2023-04-25T06:24:13;4.00;;;2.10;;
66800;SDS011;53703;50.326;19.122;2023-04-25T06:27:07;3.10;;;2.10;;
66800;SDS011;53703;50.326;19.122;2023-04-25T06:30:01;3.20;;;2.30;;
66800;SDS011;53703;50.326;19.122;2023-04-25T06:32:55;3.80;;;2.30;;
66800;SDS011;53703;50.326;19.122;2023-04-25T06:35:48;4.40;;;2.50;;
66800;SDS011;53703;50.326;19.122;2023-04-25T06:38:42;4.50;;;2.40;;
66800;SDS011;53703;50.326;19.122;2023-04-25T06:41:36;3.60;;;2.40;;
66800;SDS011;53703;50.326;19.122;2023-04-25T06:44:30;4.00;;;2.50;;
66800;SDS011;53703;50.326;19.122;2023-04-25T06:47:23;3.80;;;2.60;;
66800;SDS011;53703;50.326;19.122;2023-04-25T06:50:17;4.10;;;2.40;;
66800;SDS011;53703;50.326;19.122;2023-04-25T06:53:11;5.90;;;2.60;;
66800;SDS011;53703;50.326;19.122;2023-04-25T06:56:05;3.60;;;2.60;;
66800;SDS011;53703;50.326;19.122;2023-04-25T06:58:52;5.70;;;2.80;;
66800;SDS011;53703;50.326;19.122;2023-04-25T07:01:46;5.40;;;3.00;;
66800;SDS011;53703;50.326;19.122;2023-04-25T07:04:40;4.50;;;2.40;;
66800;SDS011;53703;50.326;19.122;2023-04-25T07:07:34;4.10;;;2.80;;
66800;SDS011;53703;50.326;19.122;2023-04-25T07:10:30;4.90;;;3.00;;
66800;SDS011;53703;50.326;19.122;2023-04-25T07:13:28;5.90;;;3.40;;
66800;SDS011;53703;50.326;19.122;2023-04-25T07:16:05;7.00;;;3.80;;
66800;SDS011;53703;50.326;19.122;2023-04-25T07:18:59;5.20;;;3.20;;
66800;SDS011;53703;50.326;19.122;2023-04-25T07:21:53;5.30;;;3.00;;
66800;SDS011;53703;50.326;19.122;2023-04-25T07:24:47;6.10;;;3.00;;
66800;SDS011;53703;50.326;19.122;2023-04-25T07:27:40;5.30;;;3.00;;
66800;SDS011;53703;50.326;19.122;2023-04-25T07:30:35;8.10;;;3.20;;
66800;SDS011;53703;50.326;19.122;2023-04-25T07:33:29;8.80;;;3.30;;
66800;SDS011;53703;50.326;19.122;2023-04-25T07:36:23;3.80;;;2.90;;
66800;SDS011;53703;50.326;19.122;2023-04-25T07:39:17;5.60;;;3.70;;
66800;SDS011;53703;50.326;19.122;2023-04-25T07:42:11;9.90;;;3.50;;
66800;SDS011;53703;50.326;19.122;2023-04-25T07:45:06;7.30;;;3.30;;
66800;SDS011;53703;50.326;19.122;2023-04-25T07:48:01;4.90;;;3.30;;
66800;SDS011;53703;50.326;19.122;2023-04-25T07:50:55;6.40;;;3.50;;
66800;SDS011;53703;50.326;19.122;2023-04-25T07:53:48;4.80;;;3.20;;
66800;SDS011;53703;50.326;19.122;2023-04-25T07:56:42;4.50;;;3.10;;
66800;SDS011;53703;50.326;19.122;2023-04-25T07:59:43;7.70;;;4.10;;
66800;SDS011;53703;50.326;19.122;2023-04-25T08:02:37;7.60;;;4.10;;
66800;SDS011;53703;50.326;19.122;2023-04-25T08:05:31;6.00;;;3.40;;
66800;SDS011;53703;50.326;19.122;2023-04-25T08:08:25;5.30;;;3.20;;
66800;SDS011;53703;50.326;19.122;2023-04-25T08:11:19;6.60;;;3.40;;
66800;SDS011;53703;50.326;19.122;2023-04-25T08:13:56;7.80;;;3.40;;
66800;SDS011;53703;50.326;19.122;2023-04-25T08:16:49;8.90;;;3.30;;
66800;SDS011;53703;50.326;19.122;2023-04-25T08:19:43;10.10;;;3.20;;
66800;SDS011;53703;50.326;19.122;2023-04-25T08:22:37;10.40;;;3.50;;
66800;SDS011;53703;50.326;19.122;2023-04-25T08:25:31;5.90;;;3.30;;
66800;SDS011;53703;50.326;19.122;2023-04-25T08:28:25;6.60;;;3.10;;
66800;SDS011;53703;50.326;19.122;2023-04-25T08:31:19;4.70;;;2.90;;
66800;SDS011;53703;50.326;19.122;2023-04-25T08:34:13;5.30;;;3.30;;
66800;SDS011;53703;50.326;19.122;2023-04-25T08:37:07;5.20;;;3.40;;
66800;SDS011;53703;50.326;19.122;2023-04-25T08:40:01;4.50;;;3.00;;
66800;SDS011;53703;50.326;19.122;2023-04-25T08:42:58;6.80;;;3.40;;
66800;SDS011;53703;50.326;19.122;2023-04-25T08:45:54;5.00;;;3.30;;
66800;SDS011;53703;50.326;19.122;2023-04-25T08:48:53;4.50;;;3.00;;
66800;SDS011;53703;50.326;19.122;2023-04-25T08:51:52;7.50;;;4.30;;
66800;SDS011;53703;50.326;19.122;2023-04-25T08:54:48;6.80;;;3.90;;
66800;SDS011;53703;50.326;19.122;2023-04-25T08:57:43;6.90;;;3.30;;
66800;SDS011;53703;50.326;19.122;2023-04-25T09:00:38;5.30;;;3.10;;
66800;SDS011;53703;50.326;19.122;2023-04-25T09:03:32;8.10;;;3.70;;
66800;SDS011;53703;50.326;19.122;2023-04-25T09:06:27;4.60;;;2.90;;
66800;SDS011;53703;50.326;19.122;2023-04-25T09:09:23;4.10;;;3.00;;
66800;SDS011;53703;50.326;19.122;2023-04-25T09:12:17;5.90;;;3.10;;
66800;SDS011;53703;50.326;19.122;2023-04-25T09:15:12;5.30;;;3.20;;
66800;SDS011;53703;50.326;19.122;2023-04-25T09:18:10;5.30;;;2.80;;
66800;SDS011;53703;50.326;19.122;2023-04-25T09:21:08;3.80;;;2.30;;
66800;SDS011;53703;50.326;19.122;2023-04-25T09:24:06;3.90;;;2.60;;
66800;SDS011;53703;50.326;19.122;2023-04-25T09:27:01;6.00;;;3.10;;
66800;SDS011;53703;50.326;19.122;2023-04-25T09:29:58;5.10;;;2.70;;
66800;SDS011;53703;50.326;19.122;2023-04-25T09:32:54;5.30;;;2.20;;
66800;SDS011;53703;50.326;19.122;2023-04-25T09:36:10;4.70;;;2.50;;
66800;SDS011;53703;50.326;19.122;2023-04-25T09:39:04;4.50;;;2.60;;
66800;SDS011;53703;50.326;19.122;2023-04-25T09:42:13;5.60;;;2.50;;
66800;SDS011;53703;50.326;19.122;2023-04-25T09:45:08;6.70;;;2.80;;
66800;SDS011;53703;50.326;19.122;2023-04-25T09:48:07;4.90;;;2.70;;
66800;SDS011;53703;50.326;19.122;2023-04-25T09:51:08;3.50;;;2.30;;
66800;SDS011;53703;50.326;19.122;2023-04-25T09:54:04;4.20;;;2.10;;
66800;SDS011;53703;50.326;19.122;2023-04-25T09:56:58;4.60;;;2.40;;
66800;SDS011;53703;50.326;19.122;2023-04-25T10:00:02;3.10;;;2.30;;
66800;SDS011;53703;50.326;19.122;2023-04-25T10:05:53;3.70;;;2.20;;
66800;SDS011;53703;50.326;19.122;2023-04-25T10:08:47;3.20;;;2.20;;
66800;SDS011;53703;50.326;19.122;2023-04-25T10:11:46;5.40;;;3.10;;
66800;SDS011;53703;50.326;19.122;2023-04-25T10:14:42;4.70;;;2.30;;
66800;SDS011;53703;50.326;19.122;2023-04-25T10:17:36;3.70;;;2.20;;
66800;SDS011;53703;50.326;19.122;2023-04-25T10:20:31;4.50;;;2.30;;
66800;SDS011;53703;50.326;19.122;2023-04-25T10:23:25;3.90;;;2.30;;
66800;SDS011;53703;50.326;19.122;2023-04-25T10:26:21;4.30;;;2.30;;
66800;SDS011;53703;50.326;19.122;2023-04-25T10:29:22;3.60;;;2.20;;
66800;SDS011;53703;50.326;19.122;2023-04-25T10:32:17;11.10;;;2.80;;
66800;SDS011;53703;50.326;19.122;2023-04-25T10:35:15;6.20;;;3.00;;
66800;SDS011;53703;50.326;19.122;2023-04-25T10:38:11;5.00;;;2.50;;
66800;SDS011;53703;50.326;19.122;2023-04-25T10:41:07;5.40;;;2.90;;
66800;SDS011;53703;50.326;19.122;2023-04-25T10:44:02;3.30;;;2.40;;
66800;SDS011;53703;50.326;19.122;2023-04-25T10:46:58;3.80;;;2.30;;
66800;SDS011;53703;50.326;19.122;2023-04-25T10:49:54;5.60;;;2.60;;
66800;SDS011;53703;50.326;19.122;2023-04-25T10:53:17;4.00;;;2.20;;
66800;SDS011;53703;50.326;19.122;2023-04-25T10:56:18;3.30;;;1.90;;
66800;SDS011;53703;50.326;19.122;2023-04-25T10:59:15;8.00;;;2.70;;
66800;SDS011;53703;50.326;19.122;2023-04-25T11:02:13;5.00;;;3.10;;
66800;SDS011;53703;50.326;19.122;2023-04-25T11:05:09;7.40;;;3.00;;
66800;SDS011;53703;50.326;19.122;2023-04-25T11:08:37;3.70;;;2.20;;
66800;SDS011;53703;50.326;19.122;2023-04-25T11:11:40;4.50;;;2.50;;
66800;SDS011;53703;50.326;19.122;2023-04-25T11:14:35;4.40;;;2.70;;
66800;SDS011;53703;50.326;19.122;2023-04-25T11:17:30;3.50;;;2.40;;
66800;SDS011;53703;50.326;19.122;2023-04-25T11:20:26;4.30;;;2.30;;
66800;SDS011;53703;50.326;19.122;2023-04-25T11:23:20;3.80;;;2.90;;
66800;SDS011;53703;50.326;19.122;2023-04-25T11:26:14;3.80;;;2.50;;
66800;SDS011;53703;50.326;19.122;2023-04-25T11:29:08;4.00;;;2.30;;
66800;SDS011;53703;50.326;19.122;2023-04-25T11:32:02;4.40;;;2.40;;
66800;SDS011;53703;50.326;19.122;2023-04-25T11:34:57;4.50;;;2.60;;
66800;SDS011;53703;50.326;19.122;2023-04-25T11:37:51;6.20;;;2.70;;
66800;SDS011;53703;50.326;19.122;2023-04-25T11:40:45;5.00;;;2.60;;
66800;SDS011;53703;50.326;19.122;2023-04-25T11:43:43;4.20;;;2.50;;
66800;SDS011;53703;50.326;19.122;2023-04-25T11:46:37;5.20;;;2.40;;
66800;SDS011;53703;50.326;19.122;2023-04-25T11:49:33;4.70;;;2.20;;
66800;SDS011;53703;50.326;19.122;2023-04-25T11:52:36;4.90;;;2.30;;
66800;SDS011;53703;50.326;19.122;2023-04-25T11:58:24;3.70;;;2.10;;
66800;SDS011;53703;50.326;19.122;2023-04-25T12:01:28;3.40;;;2.20;;
66800;SDS011;53703;50.326;19.122;2023-04-25T12:04:26;2.80;;;1.80;;
66800;SDS011;53703;50.326;19.122;2023-04-25T12:07:28;3.80;;;2.20;;
66800;SDS011;53703;50.326;19.122;2023-04-25T12:10:24;4.10;;;2.20;;
66800;SDS011;53703;50.326;19.122;2023-04-25T12:13:22;2.90;;;2.00;;
66800;SDS011;53703;50.326;19.122;2023-04-25T12:16:17;2.50;;;1.90;;
66800;SDS011;53703;50.326;19.122;2023-04-25T12:19:13;3.80;;;1.90;;
66800;SDS011;53703;50.326;19.122;2023-04-25T12:22:20;3.80;;;1.80;;
66800;SDS011;53703;50.326;19.122;2023-04-25T12:25:33;3.40;;;2.00;;
66800;SDS011;53703;50.326;19.122;2023-04-25T12:28:28;2.80;;;1.80;;
66800;SDS011;53703;50.326;19.122;2023-04-25T12:31:33;3.10;;;2.00;;
66800;SDS011;53703;50.326;19.122;2023-04-25T12:34:28;5.70;;;2.20;;
66800;SDS011;53703;50.326;19.122;2023-04-25T12:37:23;3.60;;;2.00;;
66800;SDS011;53703;50.326;19.122;2023-04-25T12:40:16;3.80;;;2.10;;
66800;SDS011;53703;50.326;19.122;2023-04-25T12:43:11;7.70;;;2.30;;
66800;SDS011;53703;50.326;19.122;2023-04-25T12:46:05;5.50;;;2.00;;
66800;SDS011;53703;50.326;19.122;2023-04-25T12:48:59;4.60;;;1.80;;
66800;SDS011;53703;50.326;19.122;2023-04-25T12:52:07;5.60;;;2.30;;
66800;SDS011;53703;50.326;19.122;2023-04-25T12:55:01;4.00;;;2.00;;
66800;SDS011;53703;50.326;19.122;2023-04-25T12:57:56;9.50;;;3.20;;
66800;SDS011;53703;50.326;19.122;2023-04-25T13:00:50;7.40;;;2.30;;
66800;SDS011;53703;50.326;19.122;2023-04-25T13:03:44;4.70;;;2.30;;
66800;SDS011;53703;50.326;19.122;2023-04-25T13:06:39;7.50;;;2.60;;
66800;SDS011;53703;50.326;19.122;2023-04-25T13:09:33;8.70;;;2.40;;
66800;SDS011;53703;50.326;19.122;2023-04-25T13:12:27;6.10;;;2.20;;
66800;SDS011;53703;50.326;19.122;2023-04-25T13:15:21;10.80;;;2.60;;
66800;SDS011;53703;50.326;19.122;2023-04-25T13:18:16;7.30;;;2.50;;
66800;SDS011;53703;50.326;19.122;2023-04-25T13:21:10;6.30;;;2.40;;
66800;SDS011;53703;50.326;19.122;2023-04-25T13:24:05;13.00;;;2.70;;
66800;SDS011;53703;50.326;19.122;2023-04-25T13:26:59;8.70;;;2.80;;
66800;SDS011;53703;50.326;19.122;2023-04-25T13:29:54;8.90;;;2.20;;
66800;SDS011;53703;50.326;19.122;2023-04-25T13:32:49;7.50;;;2.80;;
66800;SDS011;53703;50.326;19.122;2023-04-25T13:35:43;6.90;;;2.40;;
66800;SDS011;53703;50.326;19.122;2023-04-25T13:38:44;5.80;;;2.20;;
66800;SDS011;53703;50.326;19.122;2023-04-25T13:41:39;7.70;;;2.60;;
66800;SDS011;53703;50.326;19.122;2023-04-25T13:44:34;5.90;;;2.40;;
66800;SDS011;53703;50.326;19.122;2023-04-25T13:47:29;8.00;;;2.90;;
66800;SDS011;53703;50.326;19.122;2023-04-25T13:50:23;7.50;;;2.60;;
66800;SDS011;53703;50.326;19.122;2023-04-25T13:53:17;4.80;;;2.20;;
66800;SDS011;53703;50.326;19.122;2023-04-25T13:56:12;6.00;;;2.60;;
66800;SDS011;53703;50.326;19.122;2023-04-25T13:59:06;7.40;;;2.60;;
66800;SDS011;53703;50.326;19.122;2023-04-25T14:02:00;6.60;;;2.80;;
66800;SDS011;53703;50.326;19.122;2023-04-25T14:04:54;6.30;;;2.90;;
66800;SDS011;53703;50.326;19.122;2023-04-25T14:07:48;7.10;;;2.80;;
66800;SDS011;53703;50.326;19.122;2023-04-25T14:10:42;5.90;;;2.80;;
66800;SDS011;53703;50.326;19.122;2023-04-25T14:13:36;7.30;;;3.00;;
66800;SDS011;53703;50.326;19.122;2023-04-25T14:16:30;6.50;;;3.00;;
66800;SDS011;53703;50.326;19.122;2023-04-25T14:19:25;6.30;;;3.00;;
66800;SDS011;53703;50.326;19.122;2023-04-25T14:22:20;6.10;;;2.80;;
66800;SDS011;53703;50.326;19.122;2023-04-25T14:25:14;5.80;;;2.60;;
66800;SDS011;53703;50.326;19.122;2023-04-25T14:28:08;7.60;;;3.00;;
66800;SDS011;53703;50.326;19.122;2023-04-25T14:31:03;6.90;;;2.70;;
66800;SDS011;53703;50.326;19.122;2023-04-25T14:33:57;7.80;;;2.50;;
66800;SDS011;53703;50.326;19.122;2023-04-25T14:36:51;5.80;;;3.10;;
66800;SDS011;53703;50.326;19.122;2023-04-25T14:39:45;6.70;;;3.10;;
66800;SDS011;53703;50.326;19.122;2023-04-25T14:42:39;7.00;;;3.20;;
66800;SDS011;53703;50.326;19.122;2023-04-25T14:45:34;4.80;;;2.50;;
66800;SDS011;53703;50.326;19.122;2023-04-25T14:48:28;4.50;;;2.90;;
66800;SDS011;53703;50.326;19.122;2023-04-25T14:51:22;6.60;;;2.90;;
66800;SDS011;53703;50.326;19.122;2023-04-25T14:54:19;5.10;;;3.00;;
66800;SDS011;53703;50.326;19.122;2023-04-25T14:57:12;5.60;;;3.30;;
66800;SDS011;53703;50.326;19.122;2023-04-25T15:00:09;6.00;;;3.00;;
66800;SDS011;53703;50.326;19.122;2023-04-25T15:03:06;9.30;;;3.90;;
66800;SDS011;53703;50.326;19.122;2023-04-25T15:06:04;7.60;;;3.30;;
66800;SDS011;53703;50.326;19.122;2023-04-25T15:08:58;12.00;;;7.00;;
66800;SDS011;53703;50.326;19.122;2023-04-25T15:11:53;11.90;;;5.30;;
66800;SDS011;53703;50.326;19.122;2023-04-25T15:14:47;10.10;;;4.30;;
66800;SDS011;53703;50.326;19.122;2023-04-25T15:17:43;9.10;;;4.60;;
66800;SDS011;53703;50.326;19.122;2023-04-25T15:20:37;14.90;;;4.80;;
66800;SDS011;53703;50.326;19.122;2023-04-25T15:23:31;10.90;;;5.40;;
66800;SDS011;53703;50.326;19.122;2023-04-25T15:26:25;17.00;;;5.70;;
66800;SDS011;53703;50.326;19.122;2023-04-25T15:29:19;13.20;;;5.50;;
66800;SDS011;53703;50.326;19.122;2023-04-25T15:32:13;12.40;;;4.70;;
66800;SDS011;53703;50.326;19.122;2023-04-25T15:35:09;8.70;;;4.10;;
66800;SDS011;53703;50.326;19.122;2023-04-25T15:38:04;8.40;;;4.50;;
66800;SDS011;53703;50.326;19.122;2023-04-25T15:40:58;6.10;;;3.40;;
66800;SDS011;53703;50.326;19.122;2023-04-25T15:43:54;8.40;;;3.40;;
66800;SDS011;53703;50.326;19.122;2023-04-25T15:46:51;5.20;;;3.10;;
66800;SDS011;53703;50.326;19.122;2023-04-25T15:49:45;6.40;;;3.10;;
66800;SDS011;53703;50.326;19.122;2023-04-25T15:52:39;8.20;;;3.50;;
66800;SDS011;53703;50.326;19.122;2023-04-25T15:55:33;5.40;;;3.20;;
66800;SDS011;53703;50.326;19.122;2023-04-25T15:58:27;5.80;;;3.50;;
66800;SDS011;53703;50.326;19.122;2023-04-25T16:01:21;5.50;;;2.80;;
66800;SDS011;53703;50.326;19.122;2023-04-25T16:04:16;5.20;;;3.00;;
66800;SDS011;53703;50.326;19.122;2023-04-25T16:07:11;9.00;;;2.70;;
66800;SDS011;53703;50.326;19.122;2023-04-25T16:10:06;5.50;;;2.70;;
66800;SDS011;53703;50.326;19.122;2023-04-25T16:13:01;9.00;;;3.00;;
66800;SDS011;53703;50.326;19.122;2023-04-25T16:15:55;8.00;;;3.10;;
66800;SDS011;53703;50.326;19.122;2023-04-25T16:18:49;5.70;;;3.20;;
66800;SDS011;53703;50.326;19.122;2023-04-25T16:21:43;3.70;;;2.40;;
66800;SDS011;53703;50.326;19.122;2023-04-25T16:24:37;5.10;;;2.70;;
66800;SDS011;53703;50.326;19.122;2023-04-25T16:27:31;4.30;;;2.50;;
66800;SDS011;53703;50.326;19.122;2023-04-25T16:30:25;4.20;;;2.60;;
66800;SDS011;53703;50.326;19.122;2023-04-25T16:33:19;5.10;;;2.50;;
66800;SDS011;53703;50.326;19.122;2023-04-25T16:36:13;3.50;;;2.20;;
66800;SDS011;53703;50.326;19.122;2023-04-25T16:39:07;3.70;;;2.30;;
66800;SDS011;53703;50.326;19.122;2023-04-25T16:42:01;5.80;;;2.40;;
66800;SDS011;53703;50.326;19.122;2023-04-25T16:44:55;3.80;;;2.20;;
66800;SDS011;53703;50.326;19.122;2023-04-25T16:47:50;4.40;;;2.00;;
66800;SDS011;53703;50.326;19.122;2023-04-25T16:50:44;3.70;;;2.30;;
66800;SDS011;53703;50.326;19.122;2023-04-25T16:53:38;4.10;;;2.20;;
66800;SDS011;53703;50.326;19.122;2023-04-25T16:56:32;4.50;;;2.00;;
66800;SDS011;53703;50.326;19.122;2023-04-25T16:59:26;4.10;;;1.90;;
66800;SDS011;53703;50.326;19.122;2023-04-25T17:02:21;2.80;;;2.00;;
66800;SDS011;53703;50.326;19.122;2023-04-25T17:05:15;3.00;;;1.90;;
66800;SDS011;53703;50.326;19.122;2023-04-25T17:08:09;8.10;;;2.30;;
66800;SDS011;53703;50.326;19.122;2023-04-25T17:10:48;6.40;;;2.20;;
66800;SDS011;53703;50.326;19.122;2023-04-25T17:13:42;4.70;;;2.00;;
66800;SDS011;53703;50.326;19.122;2023-04-25T17:16:37;6.20;;;2.20;;
66800;SDS011;53703;50.326;19.122;2023-04-25T17:19:32;9.30;;;2.10;;
66800;SDS011;53703;50.326;19.122;2023-04-25T17:22:26;6.20;;;2.50;;